createdAt,value
2023-05-05T00:01:00.209Z,15.60
2023-05-05T00:03:28.817Z,15.60
2023-05-05T00:05:57.441Z,15.60
2023-05-05T00:08:25.558Z,15.60
2023-05-05T00:10:54.703Z,15.50
2023-05-05T00:13:24.388Z,15.50
2023-05-05T00:15:54.480Z,15.50
2023-05-05T00:18:22.539Z,15.50
2023-05-05T00:20:51.108Z,15.40
2023-05-05T00:23:20.057Z,15.40
2023-05-05T00:25:48.634Z,15.40
2023-05-05T00:28:16.717Z,15.40
2023-05-05T00:30:46.891Z,15.40
2023-05-05T00:33:15.052Z,15.40
2023-05-05T00:35:43.388Z,15.30
2023-05-05T00:38:11.523Z,15.30
2023-05-05T00:40:39.572Z,15.30
2023-05-05T00:43:08.281Z,15.30
2023-05-05T00:45:39.083Z,15.30
2023-05-05T00:48:09.345Z,15.30
2023-05-05T00:50:38.443Z,15.20
2023-05-05T00:53:07.839Z,15.20
2023-05-05T00:55:36.653Z,15.20
2023-05-05T00:58:05.331Z,15.20
2023-05-05T01:00:34.263Z,15.20
2023-05-05T01:03:03.299Z,15.10
2023-05-05T01:05:41.642Z,15.10
2023-05-05T01:08:25.329Z,15.10
2023-05-05T01:10:58.553Z,15.10
2023-05-05T01:13:33.606Z,15.10
2023-05-05T01:16:09.124Z,15.10
2023-05-05T01:18:46.951Z,15.00
2023-05-05T01:21:23.346Z,15.00
2023-05-05T01:24:19.110Z,15.00
2023-05-05T01:26:59.066Z,15.00
2023-05-05T01:29:56.319Z,15.00
2023-05-05T01:32:28.400Z,15.00
2023-05-05T01:35:01.233Z,15.00
2023-05-05T01:37:33.285Z,14.90
2023-05-05T01:40:07.031Z,14.90
2023-05-05T01:42:37.600Z,14.90
2023-05-05T01:45:08.178Z,14.90
2023-05-05T01:47:39.217Z,14.80
2023-05-05T01:50:09.507Z,14.90
2023-05-05T01:52:39.096Z,14.80
2023-05-05T01:55:09.488Z,14.80
2023-05-05T01:57:40.766Z,14.80
2023-05-05T02:00:10.488Z,14.80
2023-05-05T02:02:41.895Z,14.80
2023-05-05T02:05:11.298Z,14.80
2023-05-05T02:07:39.855Z,14.80
2023-05-05T02:10:11.157Z,14.80
2023-05-05T02:12:42.188Z,14.80
2023-05-05T02:15:12.348Z,14.80
2023-05-05T02:17:44.296Z,14.80
2023-05-05T02:20:15.163Z,14.80
2023-05-05T02:22:43.303Z,14.80
2023-05-05T02:25:11.436Z,14.80
2023-05-05T02:27:44.249Z,14.80
2023-05-05T02:30:15.767Z,14.80
2023-05-05T02:32:50.476Z,14.80
2023-05-05T02:35:21.940Z,14.80
2023-05-05T02:37:52.775Z,14.70
2023-05-05T02:40:24.811Z,14.70
2023-05-05T02:42:55.227Z,14.70
2023-05-05T02:45:24.465Z,14.70
2023-05-05T02:47:54.018Z,14.70
2023-05-05T02:50:22.212Z,14.70
2023-05-05T02:52:50.652Z,14.70
2023-05-05T02:55:18.818Z,14.60
2023-05-05T02:57:52.442Z,14.60
2023-05-05T03:00:25.221Z,14.60
2023-05-05T03:03:02.464Z,14.60
2023-05-05T03:05:38.452Z,14.50
2023-05-05T03:08:13.326Z,14.60
2023-05-05T03:10:48.639Z,14.50
2023-05-05T03:13:19.752Z,14.50
2023-05-05T03:15:50.759Z,14.50
2023-05-05T03:18:23.657Z,14.50
2023-05-05T03:20:52.720Z,14.50
2023-05-05T03:23:22.782Z,14.50
2023-05-05T03:25:52.004Z,14.50
2023-05-05T03:28:20.095Z,14.50
2023-05-05T03:30:48.186Z,14.50
2023-05-05T03:33:17.553Z,14.50
2023-05-05T03:35:47.062Z,14.50
2023-05-05T03:38:15.186Z,14.50
2023-05-05T03:40:44.789Z,14.50
2023-05-05T03:43:13.091Z,14.40
2023-05-05T03:45:41.159Z,14.40
2023-05-05T03:48:10.091Z,14.40
2023-05-05T03:50:38.187Z,14.40
2023-05-05T03:53:07.623Z,14.40
2023-05-05T03:55:35.698Z,14.40
2023-05-05T03:58:03.785Z,14.40
2023-05-05T04:00:32.114Z,14.40
2023-05-05T04:03:00.271Z,14.40
2023-05-05T04:05:28.346Z,14.40
2023-05-05T04:07:57.930Z,14.40
2023-05-05T04:10:27.577Z,14.40
2023-05-05T04:12:55.699Z,14.40
2023-05-05T04:15:23.878Z,14.40
2023-05-05T04:17:51.984Z,14.40
2023-05-05T04:20:20.343Z,14.40
2023-05-05T04:22:49.133Z,14.40
2023-05-05T04:25:19.053Z,14.50
2023-05-05T04:27:48.553Z,14.50
2023-05-05T04:30:17.128Z,14.50
2023-05-05T04:32:45.248Z,14.50
2023-05-05T04:35:13.400Z,14.60
2023-05-05T04:37:41.465Z,14.60
2023-05-05T04:40:10.621Z,14.70
2023-05-05T04:42:38.754Z,14.70
2023-05-05T04:45:10.326Z,14.80
2023-05-05T04:47:39.083Z,14.80
2023-05-05T04:50:08.222Z,14.90
2023-05-05T04:52:36.523Z,15.00
2023-05-05T04:55:05.032Z,15.00
2023-05-05T04:57:33.090Z,15.10
2023-05-05T05:00:04.497Z,15.10
2023-05-05T05:02:34.132Z,15.20
2023-05-05T05:05:02.500Z,15.20
2023-05-05T05:07:30.567Z,15.20
2023-05-05T05:09:58.688Z,15.20
2023-05-05T05:12:26.757Z,15.30
2023-05-05T05:14:54.813Z,15.30
2023-05-05T05:17:24.072Z,15.30
2023-05-05T05:19:55.127Z,15.30
2023-05-05T05:22:23.191Z,15.40
2023-05-05T05:24:52.171Z,15.40
2023-05-05T05:27:20.300Z,15.50
2023-05-05T05:29:48.385Z,15.50
2023-05-05T05:32:16.556Z,15.60
2023-05-05T05:34:44.678Z,15.70
2023-05-05T05:37:14.337Z,15.70
2023-05-05T05:39:43.730Z,15.80
2023-05-05T05:42:11.924Z,15.80
2023-05-05T05:44:39.966Z,15.90
2023-05-05T05:47:08.060Z,15.90
2023-05-05T05:49:36.301Z,16.00
2023-05-05T05:52:04.558Z,16.00
2023-05-05T05:54:35.519Z,16.10
2023-05-05T05:57:03.974Z,16.10
2023-05-05T05:59:32.089Z,16.20
2023-05-05T06:02:00.305Z,16.20
2023-05-05T06:04:28.667Z,16.30
2023-05-05T06:06:57.414Z,16.30
2023-05-05T06:09:25.977Z,16.40
2023-05-05T06:11:55.473Z,16.40
2023-05-05T06:14:23.560Z,16.50
2023-05-05T06:16:52.309Z,16.60
2023-05-05T06:19:20.752Z,16.70
2023-05-05T06:21:48.947Z,16.80
2023-05-05T06:24:16.994Z,16.80
2023-05-05T06:26:45.045Z,16.90
2023-05-05T06:29:14.535Z,16.90
2023-05-05T06:31:42.679Z,17.00
2023-05-05T06:34:10.929Z,17.00
2023-05-05T06:36:39.040Z,17.10
2023-05-05T06:39:07.148Z,17.20
2023-05-05T06:41:35.254Z,17.20
2023-05-05T06:44:03.796Z,17.30
2023-05-05T06:46:33.458Z,17.40
2023-05-05T06:49:01.587Z,17.50
2023-05-05T06:51:29.851Z,17.50
2023-05-05T06:53:57.964Z,17.60
2023-05-05T06:56:26.166Z,17.70
2023-05-05T06:58:54.218Z,17.70
2023-05-05T07:01:22.334Z,17.80
2023-05-05T07:03:52.384Z,17.80
2023-05-05T07:06:20.611Z,17.90
2023-05-05T07:08:48.683Z,18.00
2023-05-05T07:11:16.755Z,18.10
2023-05-05T07:13:44.809Z,18.20
2023-05-05T07:16:12.876Z,18.20
2023-05-05T07:18:41.012Z,18.30
2023-05-05T07:21:10.434Z,18.40
2023-05-05T07:23:39.140Z,18.40
2023-05-05T07:26:07.227Z,18.50
2023-05-05T07:28:36.125Z,18.70
2023-05-05T07:31:04.220Z,18.70
2023-05-05T07:33:32.296Z,18.80
2023-05-05T07:36:00.398Z,18.90
2023-05-05T07:38:29.877Z,19.00
2023-05-05T07:40:57.951Z,19.10
2023-05-05T07:43:26.014Z,19.20
2023-05-05T07:45:54.131Z,19.30
2023-05-05T07:48:22.537Z,19.40
2023-05-05T07:50:50.829Z,19.50
2023-05-05T07:53:18.932Z,19.60
2023-05-05T07:55:48.386Z,19.60
2023-05-05T07:58:16.476Z,19.70
2023-05-05T08:00:44.849Z,19.80
2023-05-05T08:03:13.113Z,19.90
2023-05-05T08:05:41.437Z,20.00
2023-05-05T08:08:09.598Z,20.10
2023-05-05T08:10:37.650Z,20.20
2023-05-05T08:13:07.110Z,20.30
2023-05-05T08:15:35.293Z,20.40
2023-05-05T08:18:03.417Z,20.50
2023-05-05T08:20:31.665Z,20.60
2023-05-05T08:22:59.934Z,20.70
2023-05-05T08:25:28.007Z,20.80
2023-05-05T08:27:56.125Z,20.90
2023-05-05T08:30:25.609Z,21.00
2023-05-05T08:32:53.718Z,21.10
2023-05-05T08:35:22.132Z,21.10
2023-05-05T08:37:51.467Z,21.20
2023-05-05T08:40:20.935Z,21.30
2023-05-05T08:42:49.437Z,21.40
2023-05-05T08:45:17.910Z,21.50
2023-05-05T08:47:48.002Z,21.60
2023-05-05T08:50:18.536Z,21.70
2023-05-05T08:55:25.460Z,21.90
2023-05-05T08:57:56.025Z,22.10
2023-05-05T09:00:26.545Z,22.10
2023-05-05T09:02:59.096Z,22.20
2023-05-05T09:05:27.716Z,22.30
2023-05-05T09:07:56.012Z,22.40
2023-05-05T09:10:25.689Z,22.50
2023-05-05T09:12:53.874Z,22.70
2023-05-05T09:15:21.937Z,22.80
2023-05-05T09:17:50.065Z,22.90
2023-05-05T09:20:19.639Z,23.10
2023-05-05T09:22:48.607Z,23.20
2023-05-05T09:25:18.581Z,23.40
2023-05-05T09:27:47.987Z,23.50
2023-05-05T09:30:17.929Z,23.70
2023-05-05T09:32:47.670Z,23.80
2023-05-05T09:35:16.484Z,23.90
2023-05-05T09:37:46.642Z,24.10
2023-05-05T09:40:16.493Z,24.30
2023-05-05T09:42:45.357Z,24.50
2023-05-05T09:45:27.885Z,24.60
2023-05-05T09:47:59.880Z,24.80
2023-05-05T09:50:30.915Z,24.90
2023-05-05T09:53:02.078Z,25.10
2023-05-05T09:55:31.082Z,25.30
2023-05-05T09:58:17.768Z,25.40
2023-05-05T10:00:46.030Z,25.60
2023-05-05T10:03:14.109Z,25.80
2023-05-05T10:05:50.526Z,26.00
2023-05-05T10:08:21.486Z,26.10
2023-05-05T10:10:52.957Z,26.30
2023-05-05T10:13:22.676Z,26.40
2023-05-05T10:15:52.068Z,26.60
2023-05-05T10:18:25.071Z,26.60
2023-05-05T10:20:59.238Z,26.70
2023-05-05T10:23:36.975Z,26.90
2023-05-05T10:26:08.132Z,27.10
2023-05-05T10:28:44.981Z,27.30
2023-05-05T10:31:25.825Z,27.50
2023-05-05T10:34:01.364Z,27.70
2023-05-05T10:36:31.665Z,27.90
2023-05-05T10:39:01.763Z,28.10
2023-05-05T10:41:30.908Z,28.20
2023-05-05T10:44:02.167Z,28.40
2023-05-05T10:46:32.787Z,28.50
2023-05-05T10:49:11.754Z,28.70
2023-05-05T10:54:22.562Z,29.10
2023-05-05T10:56:51.217Z,29.20
2023-05-05T10:59:41.140Z,29.30
2023-05-05T11:02:23.595Z,29.50
2023-05-05T11:05:14.920Z,29.80
2023-05-05T11:07:43.656Z,30.00
2023-05-05T11:10:14.582Z,30.10
2023-05-05T11:13:21.307Z,30.20
2023-05-05T11:15:50.691Z,30.40
2023-05-05T11:18:38.648Z,30.60
2023-05-05T11:21:18.487Z,30.80
2023-05-05T11:23:48.558Z,31.00
2023-05-05T11:26:19.300Z,31.10
2023-05-05T11:29:02.114Z,31.30
2023-05-05T11:34:30.254Z,31.70
2023-05-05T11:37:01.477Z,31.90
2023-05-05T11:39:52.147Z,32.10
2023-05-05T11:44:55.296Z,32.30
2023-05-05T11:47:29.113Z,32.40
2023-05-05T11:49:57.616Z,32.60
2023-05-05T11:52:30.280Z,32.70
2023-05-05T11:55:03.780Z,32.80
2023-05-05T12:00:03.693Z,33.00
2023-05-05T12:02:32.351Z,33.10
2023-05-05T12:05:01.288Z,33.20
2023-05-05T12:07:31.247Z,33.30
2023-05-05T12:09:59.526Z,33.40
2023-05-05T12:12:40.135Z,33.40
2023-05-05T12:15:09.403Z,33.30
2023-05-05T12:17:42.823Z,33.30
2023-05-05T12:20:12.913Z,33.30
2023-05-05T12:22:41.517Z,33.30
2023-05-05T12:25:10.517Z,33.20
2023-05-05T12:27:40.031Z,33.00
2023-05-05T12:30:16.995Z,32.60
2023-05-05T12:32:45.743Z,32.20
2023-05-05T12:35:14.729Z,31.80
2023-05-05T12:37:44.066Z,31.40
2023-05-05T12:40:45.346Z,30.90
2023-05-05T12:43:27.163Z,30.50
2023-05-05T12:46:06.254Z,30.10
2023-05-05T12:48:35.880Z,29.80
2023-05-05T12:51:14.758Z,29.50
2023-05-05T12:53:42.831Z,29.30
2023-05-05T12:56:36.849Z,29.00
2023-05-05T12:59:08.056Z,28.70
2023-05-05T13:01:37.331Z,28.50
2023-05-05T13:04:07.170Z,28.30
2023-05-05T13:06:35.981Z,28.20
2023-05-05T13:09:04.432Z,28.00
2023-05-05T13:11:36.250Z,27.80
2023-05-05T13:14:07.402Z,27.60
2023-05-05T13:16:35.889Z,27.50
2023-05-05T13:19:03.965Z,27.30
2023-05-05T13:24:15.916Z,27.10
2023-05-05T13:26:47.027Z,27.00
2023-05-05T13:29:17.490Z,26.80
2023-05-05T13:31:46.754Z,26.80
2023-05-05T13:34:15.094Z,26.70
2023-05-05T13:36:43.148Z,26.60
2023-05-05T13:39:11.307Z,26.50
2023-05-05T13:41:39.601Z,26.50
2023-05-05T13:44:07.704Z,26.40
2023-05-05T13:46:37.186Z,26.40
2023-05-05T13:49:05.286Z,26.30
2023-05-05T13:51:34.729Z,26.20
2023-05-05T13:54:03.247Z,26.20
2023-05-05T13:56:31.475Z,26.10
2023-05-05T13:58:59.753Z,26.00
2023-05-05T14:01:28.096Z,25.90
2023-05-05T14:03:58.390Z,25.80
2023-05-05T14:06:27.755Z,25.80
2023-05-05T14:08:55.894Z,25.70
2023-05-05T14:11:24.396Z,25.60
2023-05-05T14:13:52.797Z,25.50
2023-05-05T14:16:21.101Z,25.50
2023-05-05T14:18:49.208Z,25.50
2023-05-05T14:21:18.631Z,25.50
2023-05-05T14:23:46.711Z,25.50
2023-05-05T14:26:14.793Z,25.40
2023-05-05T14:28:43.533Z,25.40
2023-05-05T14:31:12.342Z,25.40
2023-05-05T14:33:40.410Z,25.40
2023-05-05T14:36:09.128Z,25.40
2023-05-05T14:38:38.650Z,25.40
2023-05-05T14:41:06.868Z,25.40
2023-05-05T14:43:34.942Z,25.30
2023-05-05T14:46:06.850Z,25.30
2023-05-05T14:48:35.503Z,25.20
2023-05-05T14:51:04.244Z,25.20
2023-05-05T14:53:32.356Z,25.20
2023-05-05T14:56:02.229Z,25.10
2023-05-05T14:58:31.128Z,25.10
2023-05-05T15:01:00.457Z,25.10
2023-05-05T15:03:28.816Z,25.10
2023-05-05T15:05:57.088Z,25.00
2023-05-05T15:08:25.354Z,25.00
2023-05-05T15:10:53.446Z,24.90
2023-05-05T15:13:22.940Z,24.90
2023-05-05T15:15:51.356Z,24.90
2023-05-05T15:18:20.104Z,24.90
2023-05-05T15:20:48.195Z,24.90
2023-05-05T15:23:16.282Z,24.80
2023-05-05T15:25:44.414Z,24.80
2023-05-05T15:28:12.481Z,24.80
2023-05-05T15:30:41.981Z,24.80
2023-05-05T15:33:10.074Z,24.70
2023-05-05T15:35:38.227Z,24.70
2023-05-05T15:38:06.326Z,24.70
2023-05-05T15:40:34.509Z,24.60
2023-05-05T15:43:02.617Z,24.60
2023-05-05T15:45:30.811Z,24.60
2023-05-05T15:48:00.292Z,24.60
2023-05-05T15:50:28.405Z,24.50
2023-05-05T15:52:56.997Z,24.50
2023-05-05T15:55:25.435Z,24.50
2023-05-05T15:57:53.840Z,24.50
2023-05-05T16:00:22.534Z,24.50
2023-05-05T16:02:50.862Z,24.50
2023-05-05T16:05:22.829Z,24.40
2023-05-05T16:07:52.702Z,24.40
2023-05-05T16:10:21.225Z,24.40
2023-05-05T16:12:49.564Z,24.30
2023-05-05T16:15:17.719Z,24.30
2023-05-05T16:17:45.910Z,24.30
2023-05-05T16:20:14.209Z,24.30
2023-05-05T16:22:43.621Z,24.30
2023-05-05T16:25:11.795Z,24.40
2023-05-05T16:27:39.913Z,24.40
2023-05-05T16:30:10.249Z,24.40
2023-05-05T16:32:38.447Z,24.50
2023-05-05T16:35:09.219Z,24.40
2023-05-05T16:37:37.457Z,24.30
2023-05-05T16:40:08.321Z,24.30
2023-05-05T16:42:36.364Z,24.20
2023-05-05T16:45:05.159Z,24.20
2023-05-05T16:47:33.329Z,24.10
2023-05-05T16:50:01.406Z,24.10
2023-05-05T16:52:29.479Z,24.00
2023-05-05T16:54:57.536Z,24.00
2023-05-05T16:57:26.971Z,23.90
2023-05-05T16:59:57.079Z,23.90
2023-05-05T17:02:25.164Z,23.80
2023-05-05T17:04:53.349Z,23.80
2023-05-05T17:07:21.572Z,23.70
2023-05-05T17:09:49.642Z,23.60
2023-05-05T17:12:17.716Z,23.70
2023-05-05T17:14:47.345Z,23.70
2023-05-05T17:17:15.495Z,23.60
2023-05-05T17:19:44.792Z,23.60
2023-05-05T17:22:12.979Z,23.60
2023-05-05T17:24:41.037Z,23.60
2023-05-05T17:27:09.103Z,23.60
2023-05-05T17:29:40.850Z,23.50
2023-05-05T17:32:10.549Z,23.40
2023-05-05T17:34:38.811Z,23.40
2023-05-05T17:37:06.904Z,23.30
2023-05-05T17:39:34.979Z,23.30
2023-05-05T17:42:03.243Z,23.30
2023-05-05T17:44:32.644Z,23.20
2023-05-05T17:47:02.695Z,23.10
2023-05-05T17:49:32.141Z,23.10
2023-05-05T17:52:00.248Z,23.00
2023-05-05T17:54:28.296Z,23.00
2023-05-05T17:56:56.446Z,22.90
2023-05-05T17:59:24.504Z,22.80
2023-05-05T18:01:52.555Z,22.70
2023-05-05T18:04:20.711Z,22.70
2023-05-05T18:06:50.137Z,22.60
2023-05-05T18:09:20.667Z,22.60
2023-05-05T18:11:48.773Z,22.50
2023-05-05T18:14:18.691Z,22.40
2023-05-05T18:16:49.836Z,22.40
2023-05-05T18:19:19.403Z,22.30
2023-05-05T18:21:48.970Z,22.20
2023-05-05T18:24:20.473Z,22.20
2023-05-05T18:26:50.517Z,22.10
2023-05-05T18:29:19.183Z,22.00
2023-05-05T18:31:48.512Z,21.90
2023-05-05T18:34:17.754Z,21.90
2023-05-05T18:36:46.449Z,21.80
2023-05-05T18:39:16.147Z,21.70
2023-05-05T18:41:44.328Z,21.60
2023-05-05T18:44:12.561Z,21.60
2023-05-05T18:46:40.740Z,21.50
2023-05-05T18:49:08.881Z,21.50
2023-05-05T18:51:36.954Z,21.40
2023-05-05T18:54:05.361Z,21.40
2023-05-05T18:56:34.939Z,21.30
2023-05-05T18:59:03.029Z,21.30
2023-05-05T19:01:31.250Z,21.20
2023-05-05T19:03:59.371Z,21.20
2023-05-05T19:06:27.492Z,21.10
2023-05-05T19:08:56.737Z,21.10
2023-05-05T19:11:25.216Z,21.10
2023-05-05T19:13:54.638Z,21.00
2023-05-05T19:16:22.939Z,21.00
2023-05-05T19:18:51.026Z,21.00
2023-05-05T19:21:19.087Z,20.90
2023-05-05T19:23:47.164Z,20.90
2023-05-05T19:26:16.150Z,20.80
2023-05-05T19:28:44.229Z,20.80
2023-05-05T19:31:13.707Z,20.70
2023-05-05T19:33:45.480Z,20.70
2023-05-05T19:36:13.733Z,20.60
2023-05-05T19:38:44.341Z,20.60
2023-05-05T19:41:12.746Z,20.50
2023-05-05T19:43:40.839Z,20.50
2023-05-05T19:46:08.974Z,20.50
2023-05-05T19:48:38.431Z,20.50
2023-05-05T19:51:06.534Z,20.40
2023-05-05T19:53:34.648Z,20.40
2023-05-05T19:56:02.704Z,20.40
2023-05-05T19:58:31.452Z,20.30
2023-05-05T20:00:59.612Z,20.30
2023-05-05T20:03:27.777Z,20.30
2023-05-05T20:05:58.133Z,20.30
2023-05-05T20:08:26.172Z,20.20
2023-05-05T20:10:54.224Z,20.20
2023-05-05T20:13:22.442Z,20.10
2023-05-05T20:15:50.690Z,20.10
2023-05-05T20:18:18.813Z,20.10
2023-05-05T20:20:46.921Z,20.00
2023-05-05T20:23:16.414Z,20.00
2023-05-05T20:25:44.514Z,19.90
2023-05-05T20:28:12.597Z,19.90
2023-05-05T20:30:40.669Z,19.90
2023-05-05T20:33:08.874Z,19.80
2023-05-05T20:35:36.961Z,19.80
2023-05-05T20:38:05.049Z,19.80
2023-05-05T20:40:34.504Z,19.70
2023-05-05T20:43:02.572Z,19.70
2023-05-05T20:45:31.713Z,19.60
2023-05-05T20:48:01.059Z,19.60
2023-05-05T20:50:29.195Z,19.50
2023-05-05T20:52:57.540Z,19.50
2023-05-05T20:55:26.941Z,19.50
2023-05-05T20:57:56.413Z,19.50
2023-05-05T21:00:24.886Z,19.40
2023-05-05T21:02:53.294Z,19.40
2023-05-05T21:05:21.727Z,19.30
2023-05-05T21:07:49.950Z,19.30
2023-05-05T21:10:18.036Z,19.20
2023-05-05T21:12:46.117Z,19.20
2023-05-05T21:15:16.600Z,19.20
2023-05-05T21:17:44.766Z,19.10
2023-05-05T21:20:13.931Z,19.00
2023-05-05T21:22:42.002Z,19.00
2023-05-05T21:25:14.747Z,18.90
2023-05-05T21:27:43.088Z,18.90
2023-05-05T21:30:12.220Z,18.90
2023-05-05T21:32:42.286Z,18.80
2023-05-05T21:35:11.189Z,18.80
2023-05-05T21:37:40.112Z,18.70
2023-05-05T21:40:11.271Z,18.70
2023-05-05T21:42:39.524Z,18.60
2023-05-05T21:45:08.532Z,18.60
2023-05-05T21:47:36.626Z,18.50
2023-05-05T21:50:06.837Z,18.50
2023-05-05T21:52:34.969Z,18.50
2023-05-05T21:55:03.794Z,18.50
2023-05-05T21:57:31.922Z,18.40
2023-05-05T21:59:59.974Z,18.40
2023-05-05T22:02:28.202Z,18.40
2023-05-05T22:04:56.363Z,18.40
2023-05-05T22:07:26.136Z,18.40
2023-05-05T22:09:54.247Z,18.30
2023-05-05T22:12:22.334Z,18.30
2023-05-05T22:14:50.400Z,18.30
2023-05-05T22:17:18.501Z,18.30
2023-05-05T22:19:46.552Z,18.20
2023-05-05T22:22:15.934Z,18.20
2023-05-05T22:24:45.425Z,18.20
2023-05-05T22:27:13.505Z,18.20
2023-05-05T22:29:41.576Z,18.20
2023-05-05T22:32:09.731Z,18.20
2023-05-05T22:34:37.787Z,18.20
2023-05-05T22:37:06.038Z,18.20
2023-05-05T22:39:34.298Z,18.10
2023-05-05T22:42:03.837Z,18.10
2023-05-05T22:44:31.911Z,18.10
2023-05-05T22:47:00.105Z,18.10
2023-05-05T22:49:28.722Z,18.10
2023-05-05T22:51:57.216Z,18.10
2023-05-05T22:54:25.326Z,18.00
2023-05-05T22:56:53.387Z,18.00
2023-05-05T22:59:22.832Z,18.00
2023-05-05T23:01:50.917Z,18.00
2023-05-05T23:04:19.005Z,18.00
2023-05-05T23:06:47.099Z,17.90
2023-05-05T23:09:15.153Z,17.90
2023-05-05T23:11:43.224Z,17.90
2023-05-05T23:14:11.282Z,17.90
2023-05-05T23:16:40.809Z,17.80
2023-05-05T23:19:08.939Z,17.80
2023-05-05T23:21:49.259Z,17.80
2023-05-05T23:24:21.177Z,17.80
2023-05-05T23:26:49.246Z,17.80
2023-05-05T23:29:17.294Z,17.70
2023-05-05T23:31:47.205Z,17.70
2023-05-05T23:34:15.520Z,17.70
2023-05-05T23:36:43.606Z,17.70
2023-05-05T23:39:11.827Z,17.70
2023-05-05T23:41:39.916Z,17.60
2023-05-05T23:44:08.028Z,17.60
2023-05-05T23:46:36.241Z,17.60
2023-05-05T23:49:05.725Z,17.60
2023-05-05T23:51:33.805Z,17.50
2023-05-05T23:54:02.182Z,17.50
2023-05-05T23:56:30.456Z,17.50
2023-05-05T23:58:58.542Z,17.50
